Pagina principale
METAR-TAF:

METAR-TAF

Aeroporti :

Aeroporto di Adana

Adana, Turchia

latitudine: 36-59N, longitudine: 035-18E, altezza: 20 m

Osservazione

Il bollettino è stato emesso 42 minuti fa, alle 13:20 UTC
Vento 2 kt da direzioni variabili
Temperature 30°C
Umidità 27%
Pressione 1014 hPa
Visibilità 10 km o più
nessuna nube inferiore a 1500 m e nessun cumulonembo

METAR: LTAF 261320Z VRB02KT CAVOK 30/09 Q1014 NOSIG RMK RWY23 24003KT 190V300

Ora: 17:02 (14:02 UTC)


TAF: mancante

Osservazioni e previsioni meteorologiche di più di 4000 aeroporti (messaggi METAR e TAF).

Le stazioni disponibili sono rappresentate dai dischi gialli e rossi sulla carta.

Puntare il mouse per vedere il nome della stazione.

Clicca sopra per visualizzare le osservazioni e previsioni meteorologiche.

Per cambiare la mappa : fare clic sui pulsanti verdi con una croce nera per ingrandire, il pulsante verde con un trattino per diminuire, o sulla freccia verde per le mappe adiacenti.


METAR-TAF: